sensor_id;sensor_type;location;lat;lon;timestamp;temperature;humidity
66013;DHT22;52783;50.502;8.190;2023-09-19T00:01:19;16.70;99.90
66013;DHT22;52783;50.502;8.190;2023-09-19T00:03:45;16.70;99.90
66013;DHT22;52783;50.502;8.190;2023-09-19T00:06:11;16.70;99.90
66013;DHT22;52783;50.502;8.190;2023-09-19T00:08:41;16.80;99.90
66013;DHT22;52783;50.502;8.190;2023-09-19T00:11:09;16.70;99.90
66013;DHT22;52783;50.502;8.190;2023-09-19T00:13:36;16.70;99.90
66013;DHT22;52783;50.502;8.190;2023-09-19T00:16:08;16.60;99.90
66013;DHT22;52783;50.502;8.190;2023-09-19T00:18:34;16.60;99.90
66013;DHT22;52783;50.502;8.190;2023-09-19T00:21:00;16.60;99.90
66013;DHT22;52783;50.502;8.190;2023-09-19T00:23:26;16.60;99.90
66013;DHT22;52783;50.502;8.190;2023-09-19T00:25:52;16.60;99.90
66013;DHT22;52783;50.502;8.190;2023-09-19T00:28:22;16.50;99.90
66013;DHT22;52783;50.502;8.190;2023-09-19T00:30:48;16.60;99.90
66013;DHT22;52783;50.502;8.190;2023-09-19T00:33:16;16.40;99.90
66013;DHT22;52783;50.502;8.190;2023-09-19T00:35:49;16.40;99.90
66013;DHT22;52783;50.502;8.190;2023-09-19T00:38:14;16.40;99.90
66013;DHT22;52783;50.502;8.190;2023-09-19T00:40:47;16.30;99.90
66013;DHT22;52783;50.502;8.190;2023-09-19T00:43:12;16.30;99.90
66013;DHT22;52783;50.502;8.190;2023-09-19T00:45:39;16.30;99.90
66013;DHT22;52783;50.502;8.190;2023-09-19T00:48:09;16.20;99.90
66013;DHT22;52783;50.502;8.190;2023-09-19T00:50:35;16.20;99.90
66013;DHT22;52783;50.502;8.190;2023-09-19T00:53:02;16.20;99.90
66013;DHT22;52783;50.502;8.190;2023-09-19T00:55:34;16.20;99.90
66013;DHT22;52783;50.502;8.190;2023-09-19T00:58:00;16.20;99.90
66013;DHT22;52783;50.502;8.190;2023-09-19T01:00:25;16.00;99.90
66013;DHT22;52783;50.502;8.190;2023-09-19T01:02:51;16.00;99.90
66013;DHT22;52783;50.502;8.190;2023-09-19T01:05:17;16.00;99.90
66013;DHT22;52783;50.502;8.190;2023-09-19T01:07:43;16.00;99.90
66013;DHT22;52783;50.502;8.190;2023-09-19T01:10:16;15.90;99.90
66013;DHT22;52783;50.502;8.190;2023-09-19T01:16:16;15.90;99.90
66013;DHT22;52783;50.502;8.190;2023-09-19T01:21:38;15.60;99.90
66013;DHT22;52783;50.502;8.190;2023-09-19T01:26:56;15.50;99.90
66013;DHT22;52783;50.502;8.190;2023-09-19T01:29:46;15.60;99.90
66013;DHT22;52783;50.502;8.190;2023-09-19T01:32:21;15.60;99.90
66013;DHT22;52783;50.502;8.190;2023-09-19T01:34:56;15.60;99.90
66013;DHT22;52783;50.502;8.190;2023-09-19T01:37:30;15.60;99.90
66013;DHT22;52783;50.502;8.190;2023-09-19T01:40:05;15.60;99.90
66013;DHT22;52783;50.502;8.190;2023-09-19T01:42:46;15.60;99.90
66013;DHT22;52783;50.502;8.190;2023-09-19T01:45:22;15.60;99.90
66013;DHT22;52783;50.502;8.190;2023-09-19T01:47:52;15.60;99.90
66013;DHT22;52783;50.502;8.190;2023-09-19T01:50:26;15.50;99.90
66013;DHT22;52783;50.502;8.190;2023-09-19T01:52:57;15.50;99.90
66013;DHT22;52783;50.502;8.190;2023-09-19T01:55:28;15.50;99.90
66013;DHT22;52783;50.502;8.190;2023-09-19T01:58:07;15.50;99.90
66013;DHT22;52783;50.502;8.190;2023-09-19T02:00:36;15.50;99.90
66013;DHT22;52783;50.502;8.190;2023-09-19T02:03:03;15.40;99.90
66013;DHT22;52783;50.502;8.190;2023-09-19T02:05:29;15.40;99.90
66013;DHT22;52783;50.502;8.190;2023-09-19T02:07:55;15.40;99.90
66013;DHT22;52783;50.502;8.190;2023-09-19T02:10:21;15.40;99.90
66013;DHT22;52783;50.502;8.190;2023-09-19T02:12:48;15.40;99.90
66013;DHT22;52783;50.502;8.190;2023-09-19T02:15:13;15.40;99.90
66013;DHT22;52783;50.502;8.190;2023-09-19T02:17:41;15.30;99.90
66013;DHT22;52783;50.502;8.190;2023-09-19T02:20:08;15.40;99.90
66013;DHT22;52783;50.502;8.190;2023-09-19T02:22:35;15.30;99.90
66013;DHT22;52783;50.502;8.190;2023-09-19T02:25:01;15.30;99.90
66013;DHT22;52783;50.502;8.190;2023-09-19T02:27:27;15.30;99.90
66013;DHT22;52783;50.502;8.190;2023-09-19T02:29:52;15.20;99.90
66013;DHT22;52783;50.502;8.190;2023-09-19T02:32:18;15.20;99.90
66013;DHT22;52783;50.502;8.190;2023-09-19T02:34:43;15.20;99.90
66013;DHT22;52783;50.502;8.190;2023-09-19T02:37:10;15.20;99.90
66013;DHT22;52783;50.502;8.190;2023-09-19T02:39:36;15.20;99.90
66013;DHT22;52783;50.502;8.190;2023-09-19T02:42:02;15.20;99.90
66013;DHT22;52783;50.502;8.190;2023-09-19T02:44:29;15.10;99.90
66013;DHT22;52783;50.502;8.190;2023-09-19T02:46:55;15.10;99.90
66013;DHT22;52783;50.502;8.190;2023-09-19T02:49:22;15.10;99.90
66013;DHT22;52783;50.502;8.190;2023-09-19T02:51:47;15.10;99.90
66013;DHT22;52783;50.502;8.190;2023-09-19T02:54:13;15.10;99.90
66013;DHT22;52783;50.502;8.190;2023-09-19T02:56:39;15.10;99.90
66013;DHT22;52783;50.502;8.190;2023-09-19T02:59:04;15.10;99.90
66013;DHT22;52783;50.502;8.190;2023-09-19T03:01:31;15.10;99.90
66013;DHT22;52783;50.502;8.190;2023-09-19T03:03:57;15.10;99.90
66013;DHT22;52783;50.502;8.190;2023-09-19T03:06:23;15.10;99.90
66013;DHT22;52783;50.502;8.190;2023-09-19T03:08:49;15.10;99.90
66013;DHT22;52783;50.502;8.190;2023-09-19T03:11:17;15.10;99.90
66013;DHT22;52783;50.502;8.190;2023-09-19T03:13:52;15.10;99.90
66013;DHT22;52783;50.502;8.190;2023-09-19T03:16:18;15.20;99.90
66013;DHT22;52783;50.502;8.190;2023-09-19T03:18:47;15.20;99.90
66013;DHT22;52783;50.502;8.190;2023-09-19T03:21:16;15.20;99.90
66013;DHT22;52783;50.502;8.190;2023-09-19T03:23:43;15.30;99.90
66013;DHT22;52783;50.502;8.190;2023-09-19T03:26:13;15.30;99.90
66013;DHT22;52783;50.502;8.190;2023-09-19T03:28:39;15.20;99.90
66013;DHT22;52783;50.502;8.190;2023-09-19T03:31:07;15.20;99.90
66013;DHT22;52783;50.502;8.190;2023-09-19T03:33:32;14.90;99.90
66013;DHT22;52783;50.502;8.190;2023-09-19T03:36:00;14.50;99.90
66013;DHT22;52783;50.502;8.190;2023-09-19T03:38:26;14.30;99.90
66013;DHT22;52783;50.502;8.190;2023-09-19T03:40:52;14.20;99.90
66013;DHT22;52783;50.502;8.190;2023-09-19T03:43:18;14.10;99.90
66013;DHT22;52783;50.502;8.190;2023-09-19T03:45:44;14.10;99.90
66013;DHT22;52783;50.502;8.190;2023-09-19T03:48:12;14.20;99.90
66013;DHT22;52783;50.502;8.190;2023-09-19T03:50:39;14.10;99.90
66013;DHT22;52783;50.502;8.190;2023-09-19T03:53:04;14.20;99.90
66013;DHT22;52783;50.502;8.190;2023-09-19T03:55:32;14.20;99.90
66013;DHT22;52783;50.502;8.190;2023-09-19T03:57:58;14.20;99.90
66013;DHT22;52783;50.502;8.190;2023-09-19T04:00:24;14.30;99.90
66013;DHT22;52783;50.502;8.190;2023-09-19T04:02:52;14.40;99.90
66013;DHT22;52783;50.502;8.190;2023-09-19T04:05:18;14.40;99.90
66013;DHT22;52783;50.502;8.190;2023-09-19T04:07:44;14.30;99.90
66013;DHT22;52783;50.502;8.190;2023-09-19T04:10:10;14.40;99.90
66013;DHT22;52783;50.502;8.190;2023-09-19T04:12:40;14.40;99.90
66013;DHT22;52783;50.502;8.190;2023-09-19T04:15:06;14.50;99.90
66013;DHT22;52783;50.502;8.190;2023-09-19T04:17:31;14.40;99.90
66013;DHT22;52783;50.502;8.190;2023-09-19T04:20:00;14.30;99.90
66013;DHT22;52783;50.502;8.190;2023-09-19T04:22:26;14.30;99.90
66013;DHT22;52783;50.502;8.190;2023-09-19T04:24:51;14.20;99.90
66013;DHT22;52783;50.502;8.190;2023-09-19T04:27:17;14.30;99.90
66013;DHT22;52783;50.502;8.190;2023-09-19T04:29:44;14.30;99.90
66013;DHT22;52783;50.502;8.190;2023-09-19T04:32:10;14.20;99.90
66013;DHT22;52783;50.502;8.190;2023-09-19T04:34:36;14.20;99.90
66013;DHT22;52783;50.502;8.190;2023-09-19T04:37:02;14.10;99.90
66013;DHT22;52783;50.502;8.190;2023-09-19T04:39:28;14.10;99.90
66013;DHT22;52783;50.502;8.190;2023-09-19T04:41:54;14.10;99.90
66013;DHT22;52783;50.502;8.190;2023-09-19T04:44:20;14.20;99.90
66013;DHT22;52783;50.502;8.190;2023-09-19T04:46:46;14.10;99.90
66013;DHT22;52783;50.502;8.190;2023-09-19T04:49:12;14.10;99.90
66013;DHT22;52783;50.502;8.190;2023-09-19T04:51:38;14.10;99.90
66013;DHT22;52783;50.502;8.190;2023-09-19T04:54:05;14.00;99.90
66013;DHT22;52783;50.502;8.190;2023-09-19T04:56:30;14.00;99.90
66013;DHT22;52783;50.502;8.190;2023-09-19T04:58:57;14.00;99.90
66013;DHT22;52783;50.502;8.190;2023-09-19T05:01:24;14.00;99.90
66013;DHT22;52783;50.502;8.190;2023-09-19T05:03:49;14.10;99.90
66013;DHT22;52783;50.502;8.190;2023-09-19T05:06:21;14.10;99.90
66013;DHT22;52783;50.502;8.190;2023-09-19T05:08:47;14.10;99.90
66013;DHT22;52783;50.502;8.190;2023-09-19T05:11:19;14.10;99.90
66013;DHT22;52783;50.502;8.190;2023-09-19T05:13:47;14.10;99.90
66013;DHT22;52783;50.502;8.190;2023-09-19T05:16:12;14.10;99.90
66013;DHT22;52783;50.502;8.190;2023-09-19T05:18:38;14.10;99.90
66013;DHT22;52783;50.502;8.190;2023-09-19T05:21:03;14.20;99.90
66013;DHT22;52783;50.502;8.190;2023-09-19T05:23:29;14.10;99.90
66013;DHT22;52783;50.502;8.190;2023-09-19T05:25:55;14.10;99.90
66013;DHT22;52783;50.502;8.190;2023-09-19T05:28:22;14.20;99.90
66013;DHT22;52783;50.502;8.190;2023-09-19T05:30:48;14.20;99.90
66013;DHT22;52783;50.502;8.190;2023-09-19T05:33:14;14.20;99.90
66013;DHT22;52783;50.502;8.190;2023-09-19T05:35:39;14.20;99.90
66013;DHT22;52783;50.502;8.190;2023-09-19T05:38:07;14.20;99.90
66013;DHT22;52783;50.502;8.190;2023-09-19T05:40:34;14.30;99.90
66013;DHT22;52783;50.502;8.190;2023-09-19T05:43:01;14.30;99.90
66013;DHT22;52783;50.502;8.190;2023-09-19T05:45:27;14.30;99.90
66013;DHT22;52783;50.502;8.190;2023-09-19T05:47:53;14.30;99.90
66013;DHT22;52783;50.502;8.190;2023-09-19T05:50:29;14.30;99.90
66013;DHT22;52783;50.502;8.190;2023-09-19T05:52:55;14.40;99.90
66013;DHT22;52783;50.502;8.190;2023-09-19T05:55:23;14.40;99.90
66013;DHT22;52783;50.502;8.190;2023-09-19T05:57:53;14.50;99.90
66013;DHT22;52783;50.502;8.190;2023-09-19T06:00:23;14.50;99.90
66013;DHT22;52783;50.502;8.190;2023-09-19T06:02:52;14.60;99.90
66013;DHT22;52783;50.502;8.190;2023-09-19T06:05:19;14.60;99.90
66013;DHT22;52783;50.502;8.190;2023-09-19T06:07:45;14.70;99.90
66013;DHT22;52783;50.502;8.190;2023-09-19T06:10:10;14.70;99.90
66013;DHT22;52783;50.502;8.190;2023-09-19T06:12:39;14.80;99.90
66013;DHT22;52783;50.502;8.190;2023-09-19T06:15:05;14.90;99.90
66013;DHT22;52783;50.502;8.190;2023-09-19T06:17:34;14.90;99.90
66013;DHT22;52783;50.502;8.190;2023-09-19T06:20:06;15.00;99.90
66013;DHT22;52783;50.502;8.190;2023-09-19T06:22:38;15.00;99.90
66013;DHT22;52783;50.502;8.190;2023-09-19T06:25:04;15.00;99.90
66013;DHT22;52783;50.502;8.190;2023-09-19T06:27:29;15.00;99.90
66013;DHT22;52783;50.502;8.190;2023-09-19T06:29:55;15.00;99.90
66013;DHT22;52783;50.502;8.190;2023-09-19T06:32:27;15.10;99.90
66013;DHT22;52783;50.502;8.190;2023-09-19T06:34:52;15.20;99.90
66013;DHT22;52783;50.502;8.190;2023-09-19T06:37:20;15.20;99.90
66013;DHT22;52783;50.502;8.190;2023-09-19T06:39:46;15.20;99.90
66013;DHT22;52783;50.502;8.190;2023-09-19T06:42:15;15.30;99.90
66013;DHT22;52783;50.502;8.190;2023-09-19T06:44:42;15.40;99.90
66013;DHT22;52783;50.502;8.190;2023-09-19T06:47:08;15.50;99.90
66013;DHT22;52783;50.502;8.190;2023-09-19T06:49:35;15.50;99.90
66013;DHT22;52783;50.502;8.190;2023-09-19T06:52:00;15.50;99.90
66013;DHT22;52783;50.502;8.190;2023-09-19T06:54:26;15.60;99.90
66013;DHT22;52783;50.502;8.190;2023-09-19T06:56:59;15.60;99.90
66013;DHT22;52783;50.502;8.190;2023-09-19T06:59:25;15.60;99.90
66013;DHT22;52783;50.502;8.190;2023-09-19T07:01:51;15.70;99.90
66013;DHT22;52783;50.502;8.190;2023-09-19T07:04:18;15.80;99.90
66013;DHT22;52783;50.502;8.190;2023-09-19T07:06:50;15.80;99.90
66013;DHT22;52783;50.502;8.190;2023-09-19T07:09:17;15.80;99.90
66013;DHT22;52783;50.502;8.190;2023-09-19T07:11:45;15.90;99.90
66013;DHT22;52783;50.502;8.190;2023-09-19T07:14:10;15.80;99.90
66013;DHT22;52783;50.502;8.190;2023-09-19T07:16:39;16.00;99.90
66013;DHT22;52783;50.502;8.190;2023-09-19T07:19:05;16.10;99.90
66013;DHT22;52783;50.502;8.190;2023-09-19T07:21:31;16.10;99.90
66013;DHT22;52783;50.502;8.190;2023-09-19T07:23:59;16.10;99.90
66013;DHT22;52783;50.502;8.190;2023-09-19T07:26:26;16.00;99.90
66013;DHT22;52783;50.502;8.190;2023-09-19T07:28:52;16.10;99.90
66013;DHT22;52783;50.502;8.190;2023-09-19T07:31:18;16.30;99.90
66013;DHT22;52783;50.502;8.190;2023-09-19T07:33:44;16.30;99.90
66013;DHT22;52783;50.502;8.190;2023-09-19T07:36:11;16.30;99.90
66013;DHT22;52783;50.502;8.190;2023-09-19T07:38:39;16.50;99.90
66013;DHT22;52783;50.502;8.190;2023-09-19T07:41:04;16.40;99.90
66013;DHT22;52783;50.502;8.190;2023-09-19T07:43:30;16.50;99.90
66013;DHT22;52783;50.502;8.190;2023-09-19T07:45:57;16.60;99.90
66013;DHT22;52783;50.502;8.190;2023-09-19T07:48:22;16.80;99.90
66013;DHT22;52783;50.502;8.190;2023-09-19T07:50:49;16.80;99.90
66013;DHT22;52783;50.502;8.190;2023-09-19T07:53:15;16.80;99.90
66013;DHT22;52783;50.502;8.190;2023-09-19T07:55:43;17.10;99.90
66013;DHT22;52783;50.502;8.190;2023-09-19T07:58:13;17.00;99.90
66013;DHT22;52783;50.502;8.190;2023-09-19T08:00:39;17.10;99.90
66013;DHT22;52783;50.502;8.190;2023-09-19T08:03:04;17.00;99.90
66013;DHT22;52783;50.502;8.190;2023-09-19T08:05:31;16.90;99.90
66013;DHT22;52783;50.502;8.190;2023-09-19T08:07:58;17.10;99.90
66013;DHT22;52783;50.502;8.190;2023-09-19T08:10:24;17.10;99.90
66013;DHT22;52783;50.502;8.190;2023-09-19T08:12:52;17.30;99.90
66013;DHT22;52783;50.502;8.190;2023-09-19T08:15:23;17.20;99.90
66013;DHT22;52783;50.502;8.190;2023-09-19T08:17:49;17.50;99.90
66013;DHT22;52783;50.502;8.190;2023-09-19T08:20:15;17.70;99.90
66013;DHT22;52783;50.502;8.190;2023-09-19T08:22:52;18.00;99.90
66013;DHT22;52783;50.502;8.190;2023-09-19T08:25:20;18.00;99.90
66013;DHT22;52783;50.502;8.190;2023-09-19T08:27:47;18.50;99.90
66013;DHT22;52783;50.502;8.190;2023-09-19T08:30:14;18.40;99.90
66013;DHT22;52783;50.502;8.190;2023-09-19T08:32:40;18.10;99.90
66013;DHT22;52783;50.502;8.190;2023-09-19T08:35:08;18.10;99.90
66013;DHT22;52783;50.502;8.190;2023-09-19T08:37:35;18.10;99.90
66013;DHT22;52783;50.502;8.190;2023-09-19T08:40:00;17.90;99.90
66013;DHT22;52783;50.502;8.190;2023-09-19T08:42:26;17.90;99.90
66013;DHT22;52783;50.502;8.190;2023-09-19T08:44:52;17.80;99.90
66013;DHT22;52783;50.502;8.190;2023-09-19T08:47:33;18.20;99.90
66013;DHT22;52783;50.502;8.190;2023-09-19T08:50:10;18.30;99.90
66013;DHT22;52783;50.502;8.190;2023-09-19T08:52:43;18.20;99.90
66013;DHT22;52783;50.502;8.190;2023-09-19T08:55:12;18.30;99.90
66013;DHT22;52783;50.502;8.190;2023-09-19T08:57:39;18.20;99.90
66013;DHT22;52783;50.502;8.190;2023-09-19T09:00:08;18.30;99.90
66013;DHT22;52783;50.502;8.190;2023-09-19T09:02:40;18.40;99.90
66013;DHT22;52783;50.502;8.190;2023-09-19T09:05:08;18.50;99.90
66013;DHT22;52783;50.502;8.190;2023-09-19T09:07:35;18.60;99.90
66013;DHT22;52783;50.502;8.190;2023-09-19T09:10:02;18.80;99.90
66013;DHT22;52783;50.502;8.190;2023-09-19T09:12:29;18.40;99.90
66013;DHT22;52783;50.502;8.190;2023-09-19T09:14:56;18.60;99.90
66013;DHT22;52783;50.502;8.190;2023-09-19T09:17:23;18.50;99.90
66013;DHT22;52783;50.502;8.190;2023-09-19T09:19:53;18.80;99.90
66013;DHT22;52783;50.502;8.190;2023-09-19T09:22:19;18.80;99.90
66013;DHT22;52783;50.502;8.190;2023-09-19T09:24:56;18.90;99.90
66013;DHT22;52783;50.502;8.190;2023-09-19T09:27:30;19.00;99.90
66013;DHT22;52783;50.502;8.190;2023-09-19T09:29:58;19.20;99.90
66013;DHT22;52783;50.502;8.190;2023-09-19T09:35:00;19.20;99.90
66013;DHT22;52783;50.502;8.190;2023-09-19T09:37:27;19.40;99.90
66013;DHT22;52783;50.502;8.190;2023-09-19T09:40:00;19.40;99.90
66013;DHT22;52783;50.502;8.190;2023-09-19T09:42:45;19.20;99.90
66013;DHT22;52783;50.502;8.190;2023-09-19T09:45:23;19.00;99.90
66013;DHT22;52783;50.502;8.190;2023-09-19T09:48:01;19.10;99.90
66013;DHT22;52783;50.502;8.190;2023-09-19T09:50:46;19.10;99.90
66013;DHT22;52783;50.502;8.190;2023-09-19T09:53:26;19.00;99.90
66013;DHT22;52783;50.502;8.190;2023-09-19T09:56:03;19.00;99.90
66013;DHT22;52783;50.502;8.190;2023-09-19T10:01:13;18.90;99.90
66013;DHT22;52783;50.502;8.190;2023-09-19T10:03:41;18.80;99.90
66013;DHT22;52783;50.502;8.190;2023-09-19T10:06:13;18.80;99.90
66013;DHT22;52783;50.502;8.190;2023-09-19T10:09:08;19.00;99.90
66013;DHT22;52783;50.502;8.190;2023-09-19T10:11:47;18.80;99.90
66013;DHT22;52783;50.502;8.190;2023-09-19T10:14:16;18.80;99.90
66013;DHT22;52783;50.502;8.190;2023-09-19T10:16:46;18.70;99.90
66013;DHT22;52783;50.502;8.190;2023-09-19T10:19:19;18.90;99.90
66013;DHT22;52783;50.502;8.190;2023-09-19T10:21:47;18.80;99.90
66013;DHT22;52783;50.502;8.190;2023-09-19T10:24:15;18.70;99.90
66013;DHT22;52783;50.502;8.190;2023-09-19T10:26:41;18.90;99.90
66013;DHT22;52783;50.502;8.190;2023-09-19T10:29:09;18.80;99.90
66013;DHT22;52783;50.502;8.190;2023-09-19T10:31:37;18.70;99.90
66013;DHT22;52783;50.502;8.190;2023-09-19T10:34:06;18.80;99.90
66013;DHT22;52783;50.502;8.190;2023-09-19T10:36:33;18.70;99.90
66013;DHT22;52783;50.502;8.190;2023-09-19T10:39:02;18.90;99.90
66013;DHT22;52783;50.502;8.190;2023-09-19T10:41:32;19.20;99.90
66013;DHT22;52783;50.502;8.190;2023-09-19T10:44:03;19.50;99.90
66013;DHT22;52783;50.502;8.190;2023-09-19T10:46:32;19.30;99.90
66013;DHT22;52783;50.502;8.190;2023-09-19T10:49:00;19.20;99.90
66013;DHT22;52783;50.502;8.190;2023-09-19T10:51:30;19.50;99.90
66013;DHT22;52783;50.502;8.190;2023-09-19T10:54:02;19.40;99.90
66013;DHT22;52783;50.502;8.190;2023-09-19T10:56:34;19.40;99.90
66013;DHT22;52783;50.502;8.190;2023-09-19T10:59:06;19.30;99.90
66013;DHT22;52783;50.502;8.190;2023-09-19T11:04:35;19.40;99.90
66013;DHT22;52783;50.502;8.190;2023-09-19T11:07:06;19.30;99.90
66013;DHT22;52783;50.502;8.190;2023-09-19T11:09:54;19.70;99.90
66013;DHT22;52783;50.502;8.190;2023-09-19T11:14:55;19.90;99.90
66013;DHT22;52783;50.502;8.190;2023-09-19T11:30:48;19.70;99.90
66013;DHT22;52783;50.502;8.190;2023-09-19T11:33:28;19.60;99.90
66013;DHT22;52783;50.502;8.190;2023-09-19T11:36:09;19.50;99.90
66013;DHT22;52783;50.502;8.190;2023-09-19T11:43:47;19.60;99.90
66013;DHT22;52783;50.502;8.190;2023-09-19T11:46:13;19.90;99.90
66013;DHT22;52783;50.502;8.190;2023-09-19T11:48:43;19.80;99.90
66013;DHT22;52783;50.502;8.190;2023-09-19T11:51:11;19.80;99.90
66013;DHT22;52783;50.502;8.190;2023-09-19T11:53:45;19.70;99.90
66013;DHT22;52783;50.502;8.190;2023-09-19T11:56:20;19.60;99.90
66013;DHT22;52783;50.502;8.190;2023-09-19T11:58:49;19.90;99.90
66013;DHT22;52783;50.502;8.190;2023-09-19T12:01:23;19.60;99.90
66013;DHT22;52783;50.502;8.190;2023-09-19T12:03:53;19.60;99.90
66013;DHT22;52783;50.502;8.190;2023-09-19T12:06:20;19.30;99.90
66013;DHT22;52783;50.502;8.190;2023-09-19T12:08:47;19.30;99.90
66013;DHT22;52783;50.502;8.190;2023-09-19T12:11:15;19.20;99.90
66013;DHT22;52783;50.502;8.190;2023-09-19T12:13:45;19.20;99.90
66013;DHT22;52783;50.502;8.190;2023-09-19T12:16:19;19.60;99.90
66013;DHT22;52783;50.502;8.190;2023-09-19T12:18:48;19.60;99.90
66013;DHT22;52783;50.502;8.190;2023-09-19T12:21:31;19.60;99.90
66013;DHT22;52783;50.502;8.190;2023-09-19T12:26:30;19.40;99.90
66013;DHT22;52783;50.502;8.190;2023-09-19T12:29:03;19.80;99.90
66013;DHT22;52783;50.502;8.190;2023-09-19T12:31:30;20.00;99.90
66013;DHT22;52783;50.502;8.190;2023-09-19T12:34:01;20.00;99.90
66013;DHT22;52783;50.502;8.190;2023-09-19T12:36:27;20.00;99.90
66013;DHT22;52783;50.502;8.190;2023-09-19T12:38:59;19.80;99.90
66013;DHT22;52783;50.502;8.190;2023-09-19T12:41:25;19.50;99.90
66013;DHT22;52783;50.502;8.190;2023-09-19T12:43:52;19.70;99.90
66013;DHT22;52783;50.502;8.190;2023-09-19T12:46:22;19.90;99.90
66013;DHT22;52783;50.502;8.190;2023-09-19T12:49:17;20.20;99.90
66013;DHT22;52783;50.502;8.190;2023-09-19T12:51:45;20.10;99.90
66013;DHT22;52783;50.502;8.190;2023-09-19T12:54:11;20.00;99.90
66013;DHT22;52783;50.502;8.190;2023-09-19T12:56:41;20.00;99.90
66013;DHT22;52783;50.502;8.190;2023-09-19T12:59:12;19.80;99.90
66013;DHT22;52783;50.502;8.190;2023-09-19T13:01:39;19.80;99.90
66013;DHT22;52783;50.502;8.190;2023-09-19T13:04:20;19.80;99.90
66013;DHT22;52783;50.502;8.190;2023-09-19T13:06:51;19.70;99.90
66013;DHT22;52783;50.502;8.190;2023-09-19T13:09:19;19.80;99.90
66013;DHT22;52783;50.502;8.190;2023-09-19T13:11:46;19.80;99.90
66013;DHT22;52783;50.502;8.190;2023-09-19T13:14:24;19.50;99.90
66013;DHT22;52783;50.502;8.190;2023-09-19T13:22:00;19.60;99.90
66013;DHT22;52783;50.502;8.190;2023-09-19T13:24:26;19.80;99.90
66013;DHT22;52783;50.502;8.190;2023-09-19T13:26:52;19.70;99.90
66013;DHT22;52783;50.502;8.190;2023-09-19T13:29:18;19.90;99.90
66013;DHT22;52783;50.502;8.190;2023-09-19T13:31:51;19.90;99.90
66013;DHT22;52783;50.502;8.190;2023-09-19T13:34:18;20.00;99.90
66013;DHT22;52783;50.502;8.190;2023-09-19T13:36:44;19.80;99.90
66013;DHT22;52783;50.502;8.190;2023-09-19T13:39:12;19.60;99.90
66013;DHT22;52783;50.502;8.190;2023-09-19T13:41:43;19.70;99.90
66013;DHT22;52783;50.502;8.190;2023-09-19T13:44:09;19.80;99.90
66013;DHT22;52783;50.502;8.190;2023-09-19T13:46:39;19.80;99.90
66013;DHT22;52783;50.502;8.190;2023-09-19T13:49:06;19.70;99.90
66013;DHT22;52783;50.502;8.190;2023-09-19T13:51:32;19.70;99.90
66013;DHT22;52783;50.502;8.190;2023-09-19T13:53:58;19.80;99.90
66013;DHT22;52783;50.502;8.190;2023-09-19T13:56:25;19.80;99.90
66013;DHT22;52783;50.502;8.190;2023-09-19T13:58:56;19.80;99.90
66013;DHT22;52783;50.502;8.190;2023-09-19T14:01:21;19.70;99.90
66013;DHT22;52783;50.502;8.190;2023-09-19T14:03:47;19.80;99.90
66013;DHT22;52783;50.502;8.190;2023-09-19T14:06:15;20.00;99.90
66013;DHT22;52783;50.502;8.190;2023-09-19T14:08:41;20.00;99.90
66013;DHT22;52783;50.502;8.190;2023-09-19T14:11:10;20.00;99.90
66013;DHT22;52783;50.502;8.190;2023-09-19T14:13:36;19.80;99.90
66013;DHT22;52783;50.502;8.190;2023-09-19T14:16:05;19.90;99.90
66013;DHT22;52783;50.502;8.190;2023-09-19T14:18:32;20.00;99.90
66013;DHT22;52783;50.502;8.190;2023-09-19T14:20:58;20.20;99.90
66013;DHT22;52783;50.502;8.190;2023-09-19T14:23:23;20.10;99.90
66013;DHT22;52783;50.502;8.190;2023-09-19T14:25:50;20.10;99.90
66013;DHT22;52783;50.502;8.190;2023-09-19T14:28:17;20.10;99.90
66013;DHT22;52783;50.502;8.190;2023-09-19T14:30:43;20.10;99.90
66013;DHT22;52783;50.502;8.190;2023-09-19T14:33:09;20.10;99.90
66013;DHT22;52783;50.502;8.190;2023-09-19T14:35:37;20.00;99.90
66013;DHT22;52783;50.502;8.190;2023-09-19T14:38:03;20.10;99.90
66013;DHT22;52783;50.502;8.190;2023-09-19T14:40:29;20.10;99.90
66013;DHT22;52783;50.502;8.190;2023-09-19T14:42:54;20.00;99.90
66013;DHT22;52783;50.502;8.190;2023-09-19T14:45:20;20.10;99.90
66013;DHT22;52783;50.502;8.190;2023-09-19T14:47:46;20.10;99.90
66013;DHT22;52783;50.502;8.190;2023-09-19T14:50:12;19.90;99.90
66013;DHT22;52783;50.502;8.190;2023-09-19T14:52:38;19.80;99.90
66013;DHT22;52783;50.502;8.190;2023-09-19T14:55:06;19.90;99.90
66013;DHT22;52783;50.502;8.190;2023-09-19T14:57:31;19.80;99.90
66013;DHT22;52783;50.502;8.190;2023-09-19T14:59:58;19.80;99.90
66013;DHT22;52783;50.502;8.190;2023-09-19T15:02:24;19.90;99.90
66013;DHT22;52783;50.502;8.190;2023-09-19T15:04:51;20.00;99.90
66013;DHT22;52783;50.502;8.190;2023-09-19T15:07:18;19.90;99.90
66013;DHT22;52783;50.502;8.190;2023-09-19T15:09:43;20.00;99.90
66013;DHT22;52783;50.502;8.190;2023-09-19T15:12:09;19.90;99.90
66013;DHT22;52783;50.502;8.190;2023-09-19T15:14:36;20.00;99.90
66013;DHT22;52783;50.502;8.190;2023-09-19T15:17:02;20.00;99.90
66013;DHT22;52783;50.502;8.190;2023-09-19T15:19:30;19.90;99.90
66013;DHT22;52783;50.502;8.190;2023-09-19T15:21:55;20.00;99.90
66013;DHT22;52783;50.502;8.190;2023-09-19T15:24:23;19.90;99.90
66013;DHT22;52783;50.502;8.190;2023-09-19T15:26:48;19.80;99.90
66013;DHT22;52783;50.502;8.190;2023-09-19T15:29:15;20.00;99.90
66013;DHT22;52783;50.502;8.190;2023-09-19T15:31:41;20.10;99.90
66013;DHT22;52783;50.502;8.190;2023-09-19T15:34:06;19.90;99.90
66013;DHT22;52783;50.502;8.190;2023-09-19T15:36:33;20.00;99.90
66013;DHT22;52783;50.502;8.190;2023-09-19T15:39:06;19.90;99.90
66013;DHT22;52783;50.502;8.190;2023-09-19T15:41:37;19.90;99.90
66013;DHT22;52783;50.502;8.190;2023-09-19T15:44:03;20.00;99.90
66013;DHT22;52783;50.502;8.190;2023-09-19T15:46:32;20.00;99.90
66013;DHT22;52783;50.502;8.190;2023-09-19T15:49:02;19.90;99.90
66013;DHT22;52783;50.502;8.190;2023-09-19T15:51:28;19.80;99.90
66013;DHT22;52783;50.502;8.190;2023-09-19T15:53:54;19.80;99.90
66013;DHT22;52783;50.502;8.190;2023-09-19T15:56:22;19.80;99.90
66013;DHT22;52783;50.502;8.190;2023-09-19T15:58:53;19.80;99.90
66013;DHT22;52783;50.502;8.190;2023-09-19T16:01:19;19.70;99.90
66013;DHT22;52783;50.502;8.190;2023-09-19T16:03:55;19.70;99.90
66013;DHT22;52783;50.502;8.190;2023-09-19T16:06:23;19.60;99.90
66013;DHT22;52783;50.502;8.190;2023-09-19T16:08:50;19.60;99.90
66013;DHT22;52783;50.502;8.190;2023-09-19T16:11:17;19.60;99.90
66013;DHT22;52783;50.502;8.190;2023-09-19T16:13:43;19.60;99.90
66013;DHT22;52783;50.502;8.190;2023-09-19T16:16:12;19.50;99.90
66013;DHT22;52783;50.502;8.190;2023-09-19T16:18:57;19.50;99.90
66013;DHT22;52783;50.502;8.190;2023-09-19T16:21:27;19.50;99.90
66013;DHT22;52783;50.502;8.190;2023-09-19T16:23:54;19.30;99.90